createdAt,value
2017-09-15T00:00:07.680Z,12.15
2017-09-15T00:01:07.641Z,12.18
2017-09-15T00:02:07.313Z,12.29
2017-09-15T00:03:07.599Z,12.16
2017-09-15T00:04:07.584Z,12.15
2017-09-15T00:05:07.557Z,12.15
2017-09-15T00:06:07.525Z,12.11
2017-09-15T00:07:07.514Z,12.13
2017-09-15T00:08:07.486Z,12.12
2017-09-15T00:09:07.161Z,12.04
2017-09-15T00:10:07.449Z,11.98
2017-09-15T00:11:07.435Z,11.96
2017-09-15T00:12:07.399Z,11.93
2017-09-15T00:13:07.373Z,11.93
2017-09-15T00:14:07.355Z,11.94
2017-09-15T00:15:07.330Z,11.96
2017-09-15T00:16:07.309Z,11.97
2017-09-15T00:17:07.277Z,11.98
2017-09-15T00:18:07.258Z,11.9
2017-09-15T00:19:07.238Z,11.93
2017-09-15T00:20:07.212Z,11.88
2017-09-15T00:21:07.188Z,11.9
2017-09-15T00:22:07.170Z,11.94
2017-09-15T00:23:07.154Z,11.94
2017-09-15T00:24:07.119Z,11.9
2017-09-15T00:25:06.804Z,11.87
2017-09-15T00:26:07.071Z,11.81
2017-09-15T00:27:07.053Z,11.87
2017-09-15T00:28:06.722Z,11.82
2017-09-15T00:29:07.037Z,11.81
2017-09-15T00:30:06.982Z,11.77
2017-09-15T00:31:06.962Z,11.78
2017-09-15T00:32:06.937Z,11.9
2017-09-15T00:33:06.611Z,11.82
2017-09-15T00:34:06.890Z,11.84
2017-09-15T00:35:06.877Z,11.87
2017-09-15T00:36:06.858Z,11.88
2017-09-15T00:37:06.827Z,11.9
2017-09-15T00:38:06.804Z,11.9
2017-09-15T00:39:06.473Z,11.9
2017-09-15T00:40:06.757Z,11.96
2017-09-15T00:41:06.722Z,11.78
2017-09-15T00:42:06.719Z,11.88
2017-09-15T00:43:06.379Z,11.88
2017-09-15T00:44:06.664Z,11.79
2017-09-15T00:45:06.639Z,11.7
2017-09-15T00:46:06.620Z,11.84
2017-09-15T00:47:06.606Z,11.74
2017-09-15T00:48:06.576Z,11.74
2017-09-15T00:49:06.582Z,11.7
2017-09-15T00:50:06.545Z,11.74
2017-09-15T00:51:06.514Z,11.72
2017-09-15T00:52:06.477Z,11.78
2017-09-15T00:53:06.463Z,11.77
2017-09-15T00:54:06.438Z,11.67
2017-09-15T00:55:06.415Z,11.69
2017-09-15T00:56:06.396Z,11.82
2017-09-15T00:57:06.380Z,11.67
2017-09-15T00:58:06.343Z,11.79
2017-09-15T00:59:06.324Z,11.74
2017-09-15T01:00:06.299Z,11.75
2017-09-15T01:01:06.272Z,11.66
2017-09-15T01:02:06.255Z,11.63
2017-09-15T01:03:06.229Z,11.6
2017-09-15T01:04:06.222Z,11.69
2017-09-15T01:05:06.186Z,11.56
2017-09-15T01:06:06.169Z,11.59
2017-09-15T01:07:06.140Z,11.59
2017-09-15T01:08:06.123Z,11.6
2017-09-15T01:09:06.094Z,11.56
2017-09-15T01:10:06.069Z,11.63
2017-09-15T01:11:06.049Z,11.59
2017-09-15T01:12:06.022Z,11.51
2017-09-15T01:13:06.006Z,11.6
2017-09-15T01:14:05.674Z,11.81
2017-09-15T01:15:05.961Z,11.75
2017-09-15T01:16:05.935Z,11.82
2017-09-15T01:17:05.914Z,11.75
2017-09-15T01:18:05.901Z,11.72
2017-09-15T01:19:05.867Z,11.62
2017-09-15T01:20:05.539Z,11.62
2017-09-15T01:21:05.817Z,11.6
2017-09-15T01:22:05.795Z,11.57
2017-09-15T01:23:05.775Z,11.64
2017-09-15T01:24:05.754Z,11.53
2017-09-15T01:25:05.732Z,11.62
2017-09-15T01:26:05.703Z,11.57
2017-09-15T01:27:05.680Z,11.59
2017-09-15T01:28:05.661Z,11.57
2017-09-15T01:29:05.634Z,11.62
2017-09-15T01:30:05.624Z,11.62
2017-09-15T01:31:05.592Z,11.6
2017-09-15T01:32:05.583Z,11.6
2017-09-15T01:33:05.243Z,11.62
2017-09-15T01:34:05.536Z,11.6
2017-09-15T01:35:05.497Z,11.74
2017-09-15T01:36:05.159Z,11.57
2017-09-15T01:37:05.512Z,11.62
2017-09-15T01:38:05.429Z,11.57
2017-09-15T01:39:05.407Z,11.6
2017-09-15T01:40:05.392Z,11.6
2017-09-15T01:41:05.357Z,11.63
2017-09-15T01:42:05.336Z,11.62
2017-09-15T01:43:05.323Z,11.66
2017-09-15T01:44:05.297Z,11.59
2017-09-15T01:45:05.274Z,11.56
2017-09-15T01:46:05.249Z,11.59
2017-09-15T01:47:05.222Z,11.6
2017-09-15T01:48:05.197Z,11.56
2017-09-15T01:49:05.185Z,11.56
2017-09-15T01:50:04.861Z,11.56
2017-09-15T01:51:05.129Z,11.57
2017-09-15T01:52:05.160Z,11.59
2017-09-15T01:53:05.084Z,11.57
2017-09-15T01:54:05.059Z,11.59
2017-09-15T01:55:05.041Z,11.6
2017-09-15T01:56:05.017Z,11.62
2017-09-15T01:57:05.008Z,11.6
2017-09-15T01:58:05.063Z,11.59
2017-09-15T01:59:04.951Z,11.63
2017-09-15T02:00:04.929Z,11.6
2017-09-15T02:01:04.899Z,11.62
2017-09-15T02:02:04.882Z,11.57
2017-09-15T02:03:04.556Z,11.59
2017-09-15T02:04:04.525Z,11.7
2017-09-15T02:05:04.812Z,11.75
2017-09-15T02:06:04.792Z,11.75
2017-09-15T02:07:04.764Z,11.84
2017-09-15T02:08:04.748Z,11.78
2017-09-15T02:09:04.721Z,11.79
2017-09-15T02:10:04.706Z,11.74
2017-09-15T02:11:04.671Z,11.64
2017-09-15T02:12:04.353Z,11.75
2017-09-15T02:13:04.632Z,11.79
2017-09-15T02:14:04.611Z,11.7
2017-09-15T02:15:04.586Z,11.72
2017-09-15T02:16:04.616Z,11.7
2017-09-15T02:17:04.540Z,11.75
2017-09-15T02:18:04.518Z,11.77
2017-09-15T02:19:04.496Z,11.72
2017-09-15T02:20:04.163Z,11.81
2017-09-15T02:21:04.450Z,11.81
2017-09-15T02:22:04.459Z,11.77
2017-09-15T02:23:04.404Z,11.72
2017-09-15T02:24:04.385Z,11.72
2017-09-15T02:25:04.363Z,11.75
2017-09-15T02:26:04.334Z,11.72
2017-09-15T02:27:04.313Z,11.75
2017-09-15T02:28:04.288Z,11.79
2017-09-15T02:29:04.270Z,11.82
2017-09-15T02:30:04.250Z,11.69
2017-09-15T02:31:04.224Z,11.81
2017-09-15T02:32:04.200Z,11.75
2017-09-15T02:33:04.172Z,11.7
2017-09-15T02:34:03.846Z,11.81
2017-09-15T02:35:04.136Z,11.74
2017-09-15T02:36:04.108Z,11.84
2017-09-15T02:37:04.091Z,11.72
2017-09-15T02:38:04.061Z,11.74
2017-09-15T02:39:04.040Z,11.77
2017-09-15T02:40:03.709Z,11.79
2017-09-15T02:41:04.004Z,11.87
2017-09-15T02:42:03.666Z,11.75
2017-09-15T02:43:03.952Z,11.79
2017-09-15T02:44:03.924Z,11.81
2017-09-15T02:45:03.903Z,11.88
2017-09-15T02:46:03.902Z,11.97
2017-09-15T02:47:03.851Z,12.13
2017-09-15T02:48:03.831Z,12.13
2017-09-15T02:49:03.809Z,12.11
2017-09-15T02:50:03.791Z,12.08
2017-09-15T02:51:03.764Z,12.11
2017-09-15T02:52:03.758Z,12.15
2017-09-15T02:53:03.731Z,12.11
2017-09-15T02:54:03.694Z,12.08
2017-09-15T02:55:03.675Z,12.07
2017-09-15T02:56:03.654Z,12.08
2017-09-15T02:57:03.629Z,12.11
2017-09-15T02:58:03.601Z,12.08
2017-09-15T02:59:03.582Z,12.08
2017-09-15T03:00:03.559Z,12.11
2017-09-15T03:01:03.570Z,12.08
2017-09-15T03:02:03.518Z,12.13
2017-09-15T03:03:03.489Z,12.15
2017-09-15T03:04:03.470Z,12.12
2017-09-15T03:05:03.446Z,12.12
2017-09-15T03:06:03.426Z,12.21
2017-09-15T03:07:03.398Z,12.12
2017-09-15T03:08:03.375Z,12.05
2017-09-15T03:09:03.050Z,12.07
2017-09-15T03:10:03.390Z,12.03
2017-09-15T03:11:03.312Z,12.01
2017-09-15T03:12:03.290Z,11.96
2017-09-15T03:13:03.265Z,12
2017-09-15T03:14:03.250Z,12.12
2017-09-15T03:15:02.913Z,12.11
2017-09-15T03:16:03.195Z,12.15
2017-09-15T03:17:03.172Z,12.07
2017-09-15T03:18:03.150Z,12.12
2017-09-15T03:19:03.122Z,12.11
2017-09-15T03:20:02.805Z,12.15
2017-09-15T03:21:02.823Z,12.08
2017-09-15T03:22:03.074Z,12.08
2017-09-15T03:23:03.041Z,12.12
2017-09-15T03:24:03.022Z,12.11
2017-09-15T03:25:02.991Z,12.01
2017-09-15T03:26:02.970Z,12
2017-09-15T03:27:02.948Z,11.97
2017-09-15T03:28:02.925Z,11.94
2017-09-15T03:29:02.898Z,11.85
2017-09-15T03:30:02.577Z,11.82
2017-09-15T03:31:02.864Z,11.74
2017-09-15T03:32:02.526Z,11.72
2017-09-15T03:33:02.497Z,11.69
2017-09-15T03:34:02.485Z,11.66
2017-09-15T03:35:02.759Z,11.6
2017-09-15T03:36:02.747Z,11.56
2017-09-15T03:37:02.722Z,11.53
2017-09-15T03:38:02.698Z,11.42
2017-09-15T03:39:02.675Z,11.42
2017-09-15T03:40:02.654Z,11.46
2017-09-15T03:41:02.632Z,11.45
2017-09-15T03:42:02.604Z,11.38
2017-09-15T03:43:02.279Z,11.36
2017-09-15T03:44:02.556Z,11.41
2017-09-15T03:45:02.534Z,11.31
2017-09-15T03:46:02.519Z,11.38
2017-09-15T03:47:02.496Z,11.28
2017-09-15T03:48:02.475Z,11.2
2017-09-15T03:49:02.454Z,11.31
2017-09-15T03:50:02.424Z,11.35
2017-09-15T03:51:02.395Z,11.3
2017-09-15T03:52:02.074Z,11.21
2017-09-15T03:53:02.045Z,11.26
2017-09-15T03:54:02.335Z,11.36
2017-09-15T03:55:02.358Z,11.26
2017-09-15T03:56:02.293Z,11.27
2017-09-15T03:57:02.266Z,11.35
2017-09-15T03:58:02.242Z,11.38
2017-09-15T03:59:02.223Z,11.33
2017-09-15T04:00:02.194Z,11.41
2017-09-15T04:01:01.865Z,11.31
2017-09-15T04:02:02.153Z,11.33
2017-09-15T04:03:02.135Z,11.31
2017-09-15T04:04:02.102Z,11.28
2017-09-15T04:05:02.086Z,11.3
2017-09-15T04:06:01.805Z,11.31
2017-09-15T04:07:02.037Z,11.24
2017-09-15T04:08:02.010Z,11.33
2017-09-15T04:09:01.989Z,11.17
2017-09-15T04:10:01.970Z,11.19
2017-09-15T04:11:01.948Z,11.19
2017-09-15T04:12:01.922Z,11.13
2017-09-15T04:13:01.924Z,11.13
2017-09-15T04:14:01.875Z,11.03
2017-09-15T04:15:01.854Z,11.08
2017-09-15T04:16:01.842Z,11.09
2017-09-15T04:17:01.806Z,11.08
2017-09-15T04:18:01.789Z,11.09
2017-09-15T04:19:01.773Z,10.94
2017-09-15T04:20:01.740Z,11.02
2017-09-15T04:21:01.769Z,10.98
2017-09-15T04:22:01.693Z,11.01
2017-09-15T04:23:01.667Z,10.99
2017-09-15T04:24:01.650Z,10.87
2017-09-15T04:25:01.678Z,10.88
2017-09-15T04:26:01.602Z,10.95
2017-09-15T04:27:01.577Z,10.9
2017-09-15T04:28:01.562Z,10.99
2017-09-15T04:29:01.529Z,10.98
2017-09-15T04:30:01.516Z,11.01
2017-09-15T04:31:01.178Z,10.98
2017-09-15T04:32:01.462Z,10.93
2017-09-15T04:33:01.438Z,10.94
2017-09-15T04:34:01.417Z,10.93
2017-09-15T04:35:01.396Z,10.94
2017-09-15T04:36:01.089Z,10.94
2017-09-15T04:37:01.349Z,10.95
2017-09-15T04:38:01.322Z,10.9
2017-09-15T04:39:01.309Z,10.86
2017-09-15T04:40:01.283Z,11.02
2017-09-15T04:41:01.262Z,10.93
2017-09-15T04:42:01.279Z,10.9
2017-09-15T04:43:01.208Z,10.95
2017-09-15T04:44:01.186Z,10.93
2017-09-15T04:45:01.169Z,10.98
2017-09-15T04:46:01.134Z,10.95
2017-09-15T04:47:01.149Z,10.94
2017-09-15T04:48:01.098Z,10.81
2017-09-15T04:49:01.071Z,10.93
2017-09-15T04:50:01.053Z,10.86
2017-09-15T04:51:01.024Z,10.95
2017-09-15T04:52:01.000Z,10.99
2017-09-15T04:53:00.983Z,10.94
2017-09-15T04:54:00.957Z,11.01
2017-09-15T04:55:00.933Z,11.12
2017-09-15T04:56:00.943Z,11.05
2017-09-15T04:57:00.934Z,11.08
2017-09-15T04:58:00.922Z,11.09
2017-09-15T04:59:00.842Z,11.12
2017-09-15T05:00:00.819Z,11.13
2017-09-15T05:01:00.798Z,11.11
2017-09-15T05:02:00.775Z,11.21
2017-09-15T05:03:00.749Z,11.26
2017-09-15T05:04:00.726Z,11.16
2017-09-15T05:05:00.710Z,11.19
2017-09-15T05:06:00.684Z,11.13
2017-09-15T05:07:00.669Z,11.09
2017-09-15T05:08:00.635Z,11.16
2017-09-15T05:09:00.616Z,11.13
2017-09-15T05:10:00.591Z,11.17
2017-09-15T05:11:00.568Z,11.13
2017-09-15T05:12:00.540Z,11.19
2017-09-15T05:13:00.523Z,11.12
2017-09-15T05:14:00.194Z,11.09
2017-09-15T05:15:00.479Z,11.17
2017-09-15T05:16:00.456Z,11.13
2017-09-15T05:17:00.426Z,11.06
2017-09-15T05:18:00.403Z,11.12
2017-09-15T05:19:00.386Z,11.11
2017-09-15T05:20:00.362Z,11.05
2017-09-15T05:21:00.345Z,10.99
2017-09-15T05:22:00.009Z,11.03
2017-09-15T05:22:59.984Z,10.99
2017-09-15T05:23:59.968Z,11.01
2017-09-15T05:25:00.241Z,11.09
2017-09-15T05:26:00.228Z,11.06
2017-09-15T05:27:00.404Z,11.01
2017-09-15T05:28:00.187Z,11.03
2017-09-15T05:28:59.854Z,11.09
2017-09-15T05:30:00.138Z,11.01
2017-09-15T05:31:00.107Z,10.95
2017-09-15T05:32:00.083Z,11.01
2017-09-15T05:32:59.756Z,10.93
2017-09-15T05:34:00.043Z,11.03
2017-09-15T05:35:00.018Z,11.06
2017-09-15T05:36:00.007Z,10.98
2017-09-15T05:36:59.973Z,11.01
2017-09-15T05:37:59.956Z,10.99
2017-09-15T05:38:59.928Z,11.02
2017-09-15T05:39:59.910Z,11.06
2017-09-15T05:40:59.885Z,11.03
2017-09-15T05:41:59.862Z,11.03
2017-09-15T05:42:59.836Z,11.03
2017-09-15T05:43:59.810Z,11.13
2017-09-15T05:44:59.788Z,11.11
2017-09-15T05:45:59.767Z,11.06
2017-09-15T05:46:59.744Z,11.13
2017-09-15T05:47:59.722Z,11.12
2017-09-15T05:48:59.709Z,11.09
2017-09-15T05:49:59.684Z,11.09
2017-09-15T05:50:59.365Z,11.23
2017-09-15T05:51:59.642Z,11.24
2017-09-15T05:52:59.619Z,11.28
2017-09-15T05:53:59.285Z,11.31
2017-09-15T05:54:59.572Z,11.3
2017-09-15T05:55:59.550Z,11.3
2017-09-15T05:56:59.517Z,11.38
2017-09-15T05:57:59.202Z,11.31
2017-09-15T05:58:59.471Z,11.35
2017-09-15T05:59:59.446Z,11.46
2017-09-15T06:00:59.480Z,11.48
2017-09-15T06:01:59.408Z,11.51
2017-09-15T06:02:59.376Z,11.46
2017-09-15T06:03:59.361Z,11.53
2017-09-15T06:04:59.334Z,11.62
2017-09-15T06:05:59.308Z,11.57
2017-09-15T06:06:59.297Z,11.63
2017-09-15T06:07:59.268Z,11.62
2017-09-15T06:08:59.243Z,11.63
2017-09-15T06:09:59.221Z,11.72
2017-09-15T06:10:59.200Z,11.7
2017-09-15T06:11:59.179Z,11.72
2017-09-15T06:12:59.154Z,11.57
2017-09-15T06:13:59.126Z,11.75
2017-09-15T06:14:59.109Z,11.67
2017-09-15T06:15:59.092Z,11.69
2017-09-15T06:16:59.063Z,11.66
2017-09-15T06:17:59.039Z,11.72
2017-09-15T06:18:59.018Z,11.74
2017-09-15T06:19:59.006Z,11.82
2017-09-15T06:20:58.983Z,11.79
2017-09-15T06:21:58.963Z,11.9
2017-09-15T06:22:58.936Z,11.94
2017-09-15T06:23:58.599Z,12.08
2017-09-15T06:24:58.884Z,12.11
2017-09-15T06:25:58.860Z,12.15
2017-09-15T06:26:58.837Z,12.26
2017-09-15T06:27:58.812Z,12.26
2017-09-15T06:28:58.798Z,12.38
2017-09-15T06:29:58.462Z,12.37
2017-09-15T06:30:58.748Z,12.43
2017-09-15T06:31:58.726Z,12.43
2017-09-15T06:32:58.401Z,12.56
2017-09-15T06:33:58.681Z,12.48
2017-09-15T06:34:58.659Z,12.49
2017-09-15T06:35:58.342Z,12.56
2017-09-15T06:36:58.621Z,12.55
2017-09-15T06:37:58.600Z,12.58
2017-09-15T06:38:58.584Z,12.54
2017-09-15T06:39:58.589Z,12.56
2017-09-15T06:40:58.534Z,12.44
2017-09-15T06:41:58.511Z,12.41
2017-09-15T06:42:58.484Z,12.37
2017-09-15T06:43:58.466Z,12.36
2017-09-15T06:44:58.441Z,12.33
2017-09-15T06:45:58.113Z,12.33
2017-09-15T06:46:58.405Z,12.19
2017-09-15T06:47:58.377Z,12.21
2017-09-15T06:48:58.352Z,12.21
2017-09-15T06:49:58.361Z,12.33
2017-09-15T06:50:58.320Z,12.33
2017-09-15T06:51:58.289Z,12.29
2017-09-15T06:52:58.267Z,12.38
2017-09-15T06:53:58.247Z,12.33
2017-09-15T06:54:58.224Z,12.33
2017-09-15T06:55:58.203Z,12.34
2017-09-15T06:56:58.180Z,12.38
2017-09-15T06:57:58.155Z,12.37
2017-09-15T06:58:57.826Z,12.41
2017-09-15T06:59:58.120Z,12.34
2017-09-15T07:00:58.096Z,12.43
2017-09-15T07:01:57.769Z,12.38
2017-09-15T07:02:58.048Z,12.41
2017-09-15T07:03:58.039Z,12.41
2017-09-15T07:04:58.001Z,12.43
2017-09-15T07:05:57.986Z,12.54
2017-09-15T07:06:57.959Z,12.49
2017-09-15T07:07:57.945Z,12.54
2017-09-15T07:08:57.926Z,12.67
2017-09-15T07:09:57.883Z,12.89
2017-09-15T07:10:57.862Z,12.88
2017-09-15T07:11:57.852Z,12.94
2017-09-15T07:12:57.827Z,12.99
2017-09-15T07:13:57.806Z,13.04
2017-09-15T07:14:57.785Z,13.28
2017-09-15T07:15:57.764Z,13.19
2017-09-15T07:16:57.736Z,13.22
2017-09-15T07:17:57.721Z,13.32
2017-09-15T07:18:57.386Z,13.46
2017-09-15T07:19:57.686Z,13.48
2017-09-15T07:20:57.652Z,13.53
2017-09-15T07:21:57.624Z,13.62
2017-09-15T07:22:57.612Z,13.71
2017-09-15T07:23:57.592Z,13.8
2017-09-15T07:24:57.561Z,13.83
2017-09-15T07:25:57.545Z,13.76
2017-09-15T07:26:57.521Z,13.83
2017-09-15T07:27:57.500Z,13.69
2017-09-15T07:28:57.486Z,13.61
2017-09-15T07:29:57.157Z,13.61
2017-09-15T07:30:57.437Z,13.65
2017-09-15T07:31:57.112Z,13.48
2017-09-15T07:32:57.397Z,13.47
2017-09-15T07:33:57.366Z,13.61
2017-09-15T07:34:57.361Z,13.68
2017-09-15T07:35:57.344Z,13.69
2017-09-15T07:36:57.306Z,13.72
2017-09-15T07:37:57.001Z,13.66
2017-09-15T07:38:57.284Z,13.65
2017-09-15T07:39:57.245Z,13.63
2017-09-15T07:40:57.218Z,13.72
2017-09-15T07:41:57.238Z,13.75
2017-09-15T07:42:56.873Z,13.68
2017-09-15T07:43:57.164Z,13.63
2017-09-15T07:44:57.136Z,13.63
2017-09-15T07:45:57.119Z,13.68
2017-09-15T07:46:57.128Z,13.75
2017-09-15T07:47:56.765Z,13.71
2017-09-15T07:48:57.053Z,13.66
2017-09-15T07:49:57.030Z,13.55
2017-09-15T07:50:57.009Z,13.69
2017-09-15T07:51:56.998Z,13.72
2017-09-15T07:52:56.972Z,13.63
2017-09-15T07:53:56.943Z,13.69
2017-09-15T07:54:56.916Z,13.72
2017-09-15T07:55:56.903Z,13.79
2017-09-15T07:56:56.874Z,13.73
2017-09-15T07:57:56.864Z,13.72
2017-09-15T07:58:56.849Z,13.8
2017-09-15T07:59:56.820Z,13.84
2017-09-15T08:00:56.796Z,13.84
2017-09-15T08:01:56.772Z,13.83
2017-09-15T08:02:56.758Z,13.81
2017-09-15T08:03:56.742Z,13.8
2017-09-15T08:04:56.714Z,13.81
2017-09-15T08:05:56.689Z,13.81
2017-09-15T08:06:56.670Z,13.76
2017-09-15T08:07:56.642Z,13.8
2017-09-15T08:08:56.623Z,13.8
2017-09-15T08:09:56.638Z,13.76
2017-09-15T08:10:56.594Z,13.71
2017-09-15T08:11:56.557Z,13.73
2017-09-15T08:12:56.539Z,13.87
2017-09-15T08:13:56.514Z,13.96
2017-09-15T08:14:56.500Z,14.01
2017-09-15T08:15:56.472Z,14.02
2017-09-15T08:16:56.451Z,13.99
2017-09-15T08:17:56.440Z,14.12
2017-09-15T08:18:56.415Z,14.08
2017-09-15T08:19:56.095Z,14.09
2017-09-15T08:20:56.375Z,14.29
2017-09-15T08:21:56.343Z,14.79
2017-09-15T08:22:56.328Z,14.85
2017-09-15T08:23:55.994Z,15.01
2017-09-15T08:24:56.282Z,14.91
2017-09-15T08:25:56.266Z,14.8
2017-09-15T08:26:56.239Z,14.85
2017-09-15T08:27:56.220Z,14.64
2017-09-15T08:28:55.901Z,14.6
2017-09-15T08:29:56.184Z,14.54
2017-09-15T08:30:56.161Z,14.48
2017-09-15T08:31:56.137Z,14.42
2017-09-15T08:32:56.118Z,14.34
2017-09-15T08:33:56.097Z,14.3
2017-09-15T08:34:56.078Z,14.2
2017-09-15T08:35:56.052Z,14.17
2017-09-15T08:36:56.027Z,14.06
2017-09-15T08:37:56.021Z,14.04
2017-09-15T08:38:55.985Z,14.02
2017-09-15T08:39:56.029Z,13.91
2017-09-15T08:40:55.966Z,13.86
2017-09-15T08:41:55.927Z,13.9
2017-09-15T08:42:55.906Z,13.81
2017-09-15T08:43:55.568Z,13.75
2017-09-15T08:44:55.869Z,13.73
2017-09-15T08:45:55.844Z,13.76
2017-09-15T08:46:55.818Z,13.75
2017-09-15T08:47:55.790Z,13.72
2017-09-15T08:48:55.776Z,13.68
2017-09-15T08:49:55.751Z,13.65
2017-09-15T08:50:55.732Z,13.61
2017-09-15T08:51:55.709Z,13.59
2017-09-15T08:52:55.682Z,13.63
2017-09-15T08:53:55.666Z,13.65
2017-09-15T08:54:55.641Z,13.71
2017-09-15T08:55:55.622Z,13.76
2017-09-15T08:56:55.599Z,13.72
2017-09-15T08:57:55.578Z,13.73
2017-09-15T08:58:55.560Z,13.76
2017-09-15T08:59:55.229Z,13.68
2017-09-15T09:00:55.509Z,13.69
2017-09-15T09:01:55.491Z,13.71
2017-09-15T09:02:55.471Z,13.61
2017-09-15T09:03:55.457Z,13.63
2017-09-15T09:04:55.481Z,13.59
2017-09-15T09:05:55.412Z,13.61
2017-09-15T09:06:55.077Z,13.57
2017-09-15T09:07:55.363Z,13.66
2017-09-15T09:08:55.032Z,13.73
2017-09-15T09:09:55.333Z,13.9
2017-09-15T09:10:55.298Z,13.94
2017-09-15T09:11:55.270Z,13.96
2017-09-15T09:12:55.251Z,13.94
2017-09-15T09:13:55.224Z,13.98
2017-09-15T09:14:54.899Z,14.02
2017-09-15T09:15:55.188Z,14.09
2017-09-15T09:16:55.182Z,14.21
2017-09-15T09:17:55.206Z,14.44
2017-09-15T09:18:55.128Z,14.67
2017-09-15T09:19:55.101Z,14.83
2017-09-15T09:20:55.087Z,15
2017-09-15T09:21:55.074Z,15
2017-09-15T09:22:55.043Z,15.09
2017-09-15T09:23:55.020Z,15.16
2017-09-15T09:24:54.994Z,15.18
2017-09-15T09:25:54.980Z,15.19
2017-09-15T09:26:54.958Z,15.19
2017-09-15T09:27:54.936Z,15.18
2017-09-15T09:28:54.945Z,15.13
2017-09-15T09:29:54.899Z,15.16
2017-09-15T09:30:54.873Z,15.15
2017-09-15T09:31:54.846Z,15.33
2017-09-15T09:32:54.830Z,15.73
2017-09-15T09:33:54.506Z,15.99
2017-09-15T09:34:54.484Z,16.5
2017-09-15T09:35:54.777Z,16.82
2017-09-15T09:36:54.446Z,17.03
2017-09-15T09:37:54.736Z,17.02
2017-09-15T09:38:54.711Z,17.32
2017-09-15T09:39:54.749Z,17.73
2017-09-15T09:40:54.677Z,18.16
2017-09-15T09:41:54.649Z,18.41
2017-09-15T09:42:54.642Z,18.74
2017-09-15T09:43:54.620Z,18.94
2017-09-15T09:44:54.598Z,18.99
2017-09-15T09:45:54.571Z,18.97
2017-09-15T09:46:54.553Z,19.09
2017-09-15T09:47:54.548Z,19.25
2017-09-15T09:48:54.525Z,19.2
2017-09-15T09:49:54.504Z,19.06
2017-09-15T09:50:54.487Z,18.87
2017-09-15T09:51:54.467Z,18.65
2017-09-15T09:52:54.449Z,18.57
2017-09-15T09:53:53.820Z,18.38
2017-09-15T09:54:54.410Z,18.17
2017-09-15T09:55:54.394Z,17.92
2017-09-15T09:56:54.373Z,17.74
2017-09-15T09:57:54.359Z,17.45
2017-09-15T09:58:54.337Z,17.28
2017-09-15T09:59:54.330Z,17.1
2017-09-15T10:00:54.301Z,16.95
2017-09-15T10:01:54.281Z,16.73
2017-09-15T10:02:54.260Z,16.7
2017-09-15T10:03:54.235Z,16.67
2017-09-15T10:04:54.220Z,16.51
2017-09-15T10:05:54.210Z,16.48
2017-09-15T10:06:54.183Z,16.42
2017-09-15T10:07:54.164Z,16.3
2017-09-15T10:08:54.150Z,16.23
2017-09-15T10:09:54.125Z,16.14
2017-09-15T10:10:54.113Z,16.06
2017-09-15T10:11:54.081Z,15.96
2017-09-15T10:12:54.085Z,15.89
2017-09-15T10:13:54.052Z,15.92
2017-09-15T10:14:54.027Z,15.92
2017-09-15T10:15:54.016Z,15.93
2017-09-15T10:16:54.006Z,15.93
2017-09-15T10:17:53.970Z,15.99
2017-09-15T10:18:53.947Z,15.93
2017-09-15T10:19:53.935Z,16.04
2017-09-15T10:20:53.911Z,16.23
2017-09-15T10:21:53.894Z,16.27
2017-09-15T10:22:53.886Z,16.4
2017-09-15T10:23:53.861Z,16.44
2017-09-15T10:24:53.829Z,16.62
2017-09-15T10:25:53.815Z,16.67
2017-09-15T10:26:53.788Z,16.6
2017-09-15T10:27:53.763Z,16.69
2017-09-15T10:28:53.752Z,16.62
2017-09-15T10:29:53.723Z,16.6
2017-09-15T10:30:53.407Z,16.51
2017-09-15T10:31:53.683Z,16.34
2017-09-15T10:32:53.673Z,16.37
2017-09-15T10:33:53.657Z,16.47
2017-09-15T10:34:53.633Z,16.44
2017-09-15T10:35:53.605Z,16.5
2017-09-15T10:36:53.585Z,16.57
2017-09-15T10:37:53.577Z,16.6
2017-09-15T10:38:53.546Z,16.63
2017-09-15T10:39:53.530Z,16.78
2017-09-15T10:40:53.504Z,16.88
2017-09-15T10:41:53.502Z,17.03
2017-09-15T10:42:53.471Z,17.1
2017-09-15T10:43:53.445Z,17.24
2017-09-15T10:44:53.433Z,17.4
2017-09-15T10:45:53.406Z,17.3
2017-09-15T10:46:53.394Z,17.36
2017-09-15T10:47:53.065Z,17.28
2017-09-15T10:48:53.050Z,17.27
2017-09-15T10:49:53.328Z,17.32
2017-09-15T10:50:53.321Z,17.43
2017-09-15T10:51:53.299Z,17.53
2017-09-15T10:52:53.270Z,17.58
2017-09-15T10:53:53.252Z,17.71
2017-09-15T10:54:53.232Z,17.79
2017-09-15T10:55:53.212Z,17.8
2017-09-15T10:56:52.890Z,17.83
2017-09-15T10:57:53.183Z,17.77
2017-09-15T10:58:52.847Z,17.63
2017-09-15T10:59:53.131Z,17.39
2017-09-15T11:00:52.807Z,17.27
2017-09-15T11:01:53.095Z,17.22
2017-09-15T11:02:53.080Z,17.09
2017-09-15T11:03:53.057Z,17.02
2017-09-15T11:04:53.046Z,16.98
2017-09-15T11:05:53.075Z,17.07
2017-09-15T11:06:53.017Z,17.12
2017-09-15T11:07:52.969Z,17.09
2017-09-15T11:08:52.954Z,17.14
2017-09-15T11:09:52.635Z,17.3
2017-09-15T11:10:52.624Z,17.3
2017-09-15T11:11:52.954Z,17.4
2017-09-15T11:12:52.881Z,17.35
2017-09-15T11:13:52.885Z,17.46
2017-09-15T11:14:52.838Z,17.51
2017-09-15T11:15:52.825Z,17.4
2017-09-15T11:16:52.835Z,17.46
2017-09-15T11:17:52.786Z,17.35
2017-09-15T11:18:52.780Z,17.28
2017-09-15T11:19:52.761Z,17.09
2017-09-15T11:20:52.438Z,16.95
2017-09-15T11:21:52.748Z,16.87
2017-09-15T11:22:52.689Z,16.75
2017-09-15T11:23:52.670Z,16.7
2017-09-15T11:24:52.730Z,16.54
2017-09-15T11:25:52.647Z,16.41
2017-09-15T11:26:52.615Z,16.26
2017-09-15T11:27:52.577Z,16.17
2017-09-15T11:28:52.587Z,16.06
2017-09-15T11:29:52.583Z,16.11
2017-09-15T11:30:52.526Z,15.98
2017-09-15T11:31:52.260Z,15.98
2017-09-15T11:32:52.489Z,15.93
2017-09-15T11:33:51.851Z,15.95
2017-09-15T11:34:52.445Z,15.95
2017-09-15T11:35:52.427Z,15.98
2017-09-15T11:36:52.191Z,15.92
2017-09-15T11:37:52.082Z,15.89
2017-09-15T11:38:52.358Z,15.89
2017-09-15T11:39:52.041Z,15.89
2017-09-15T11:40:52.061Z,15.91
2017-09-15T11:41:51.998Z,15.99
2017-09-15T11:42:52.283Z,15.89
2017-09-15T11:43:52.275Z,15.88
2017-09-15T11:44:52.263Z,15.93
2017-09-15T11:45:51.924Z,15.96
2017-09-15T11:46:52.190Z,15.96
2017-09-15T11:47:51.885Z,16.07
2017-09-15T11:48:52.158Z,16.11
2017-09-15T11:49:52.156Z,16.23
2017-09-15T11:50:52.120Z,16.3
2017-09-15T11:51:52.091Z,16.27
2017-09-15T11:52:52.069Z,16.55
2017-09-15T11:53:52.073Z,16.59
2017-09-15T11:54:52.061Z,16.78
2017-09-15T11:55:51.723Z,16.87
2017-09-15T11:56:52.002Z,16.95
2017-09-15T11:57:51.974Z,17.03
2017-09-15T11:58:51.993Z,17.05
2017-09-15T11:59:51.944Z,17.1
2017-09-15T12:00:51.969Z,17.2
2017-09-15T12:01:51.914Z,17.27
2017-09-15T12:02:51.874Z,17.27
2017-09-15T12:03:51.840Z,17.28
2017-09-15T12:04:51.847Z,17.3
2017-09-15T12:05:51.816Z,17.33
2017-09-15T12:06:51.789Z,17.36
2017-09-15T12:07:51.763Z,17.49
2017-09-15T12:08:51.759Z,17.32
2017-09-15T12:09:51.740Z,17.39
2017-09-15T12:10:51.794Z,17.3
2017-09-15T12:11:51.697Z,17.32
2017-09-15T12:12:51.678Z,17.21
2017-09-15T12:13:51.652Z,17.1
2017-09-15T12:14:51.321Z,17.07
2017-09-15T12:15:51.612Z,16.99
2017-09-15T12:16:51.593Z,16.96
2017-09-15T12:17:51.572Z,17
2017-09-15T12:18:51.547Z,16.92
2017-09-15T12:19:51.589Z,16.88
2017-09-15T12:20:51.507Z,16.9
2017-09-15T12:21:51.555Z,16.92
2017-09-15T12:22:51.476Z,17
2017-09-15T12:23:51.468Z,17.06
2017-09-15T12:24:50.822Z,17.18
2017-09-15T12:25:51.105Z,17.2
2017-09-15T12:26:51.089Z,17.14
2017-09-15T12:27:51.384Z,17.17
2017-09-15T12:28:51.354Z,17.15
2017-09-15T12:29:51.337Z,17.15
2017-09-15T12:30:51.314Z,17.1
2017-09-15T12:31:51.287Z,17.06
2017-09-15T12:32:51.274Z,17
2017-09-15T12:33:51.301Z,17.03
2017-09-15T12:34:50.926Z,17
2017-09-15T12:35:51.219Z,16.92
2017-09-15T12:36:51.197Z,16.91
2017-09-15T12:37:51.176Z,16.88
2017-09-15T12:38:51.208Z,16.9
2017-09-15T12:39:50.842Z,16.77
2017-09-15T12:40:51.108Z,16.77
2017-09-15T12:41:51.130Z,16.81
2017-09-15T12:42:51.074Z,16.92
2017-09-15T12:43:51.058Z,16.75
2017-09-15T12:44:51.037Z,16.88
2017-09-15T12:45:51.014Z,16.87
2017-09-15T12:46:50.991Z,16.88
2017-09-15T12:47:50.969Z,16.82
2017-09-15T12:48:50.653Z,16.85
2017-09-15T12:49:50.943Z,16.77
2017-09-15T12:50:50.616Z,16.85
2017-09-15T12:51:50.949Z,16.85
2017-09-15T12:52:50.881Z,16.87
2017-09-15T12:53:50.854Z,16.87
2017-09-15T12:54:50.832Z,16.91